Time;durP1;ratioP1;P1;durP2;ratioP2;P2;SDS_P1;SDS_P2;PMS_P1;PMS_P2;Temp;Humidity;BMP_temperature;BMP_pressure;BME280_temperature;BME280_humidity;BME280_pressure;Samples;Min_cycle;Max_cycle;Signal;HPM_P1;HPM_P2
2022/05/19 00:00:21;;;;;;;40.72;25.52;;;;;;;14.89;51.11;101916.97;4972132;28;20042;-77
2022/05/19 00:02:47;;;;;;;45.40;26.50;;;;;;;14.92;50.99;101919.44;4969538;28;20092;-80
2022/05/19 00:05:13;;;;;;;46.63;26.10;;;;;;;14.79;50.94;101916.50;4968435;28;20030;-81
2022/05/19 00:07:38;;;;;;;48.92;30.23;;;;;;;14.76;51.13;101912.19;4985130;28;20050;-79
2022/05/19 00:10:05;;;;;;;52.22;30.45;;;;;;;14.73;51.00;101907.06;5008588;28;20026;-78
2022/05/19 00:12:30;;;;;;;56.13;30.58;;;;;;;14.54;51.47;101901.72;4986722;28;20562;-81
2022/05/19 00:14:57;;;;;;;43.15;25.90;;;;;;;14.59;51.91;101909.41;5009060;28;20377;-76
2022/05/19 00:17:24;;;;;;;51.05;29.75;;;;;;;14.51;51.98;101903.59;4972533;28;20022;-82
2022/05/19 00:19:50;;;;;;;53.60;32.10;;;;;;;14.57;51.86;101908.63;4980145;28;20061;-80
2022/05/19 00:22:16;;;;;;;50.28;30.70;;;;;;;14.55;51.78;101903.41;5005536;28;20054;-80
2022/05/19 00:24:41;;;;;;;50.58;29.00;;;;;;;14.50;51.84;101893.97;4990645;28;20030;-80
2022/05/19 00:27:07;;;;;;;50.38;28.42;;;;;;;14.44;51.90;101894.25;4971827;28;20454;-81
2022/05/19 00:29:32;;;;;;;52.15;30.35;;;;;;;14.57;51.18;101895.47;4977179;28;20038;-78
2022/05/19 00:31:58;;;;;;;45.63;26.98;;;;;;;14.61;51.24;101901.44;4974360;28;20044;-77
2022/05/19 00:34:24;;;;;;;44.03;26.83;;;;;;;14.60;51.46;101895.34;4987958;28;20069;-81
2022/05/19 00:37:01;;;;;;;49.47;28.92;;;;;;;14.45;51.59;101895.94;4975117;28;20022;-75
2022/05/19 00:39:30;;;;;;;53.10;30.08;;;;;;;14.22;52.38;101895.06;4990779;28;20042;-81
2022/05/19 00:44:41;;;;;;;43.75;25.08;;;;;;;14.46;51.67;101902.94;4992215;28;20049;-78
2022/05/19 00:47:19;;;;;;;41.35;25.92;;;;;;;14.46;51.58;101902.94;4988512;28;20137;-77
2022/05/19 00:49:47;;;;;;;52.10;26.75;;;;;;;14.35;51.82;101900.69;4975264;28;20496;-76
2022/05/19 00:52:38;;;;;;;50.45;29.70;;;;;;;14.19;52.29;101902.19;4976398;28;20416;-78
2022/05/19 00:55:20;;;;;;;45.10;27.00;;;;;;;14.13;52.90;101892.78;4972650;28;20116;-80
2022/05/19 00:57:50;;;;;;;38.53;25.58;;;;;;;14.28;52.26;101894.81;5004176;28;20046;-80
2022/05/19 01:00:19;;;;;;;47.10;27.30;;;;;;;14.32;52.43;101885.03;4990474;28;20112;-81
2022/05/19 01:02:51;;;;;;;47.30;29.80;;;;;;;14.23;52.27;101886.28;4972285;28;20035;-79
2022/05/19 01:05:29;;;;;;;53.08;28.67;;;;;;;14.26;52.52;101885.28;4990882;28;20057;-82
2022/05/19 01:08:09;;;;;;;48.10;29.98;;;;;;;14.27;52.50;101887.00;4986670;28;20105;-79
2022/05/19 01:10:36;;;;;;;47.45;29.60;;;;;;;14.14;52.75;101883.97;4973613;28;20038;-81
2022/05/19 01:13:02;;;;;;;50.80;31.00;;;;;;;14.20;52.44;101896.88;4987725;28;20054;-77
2022/05/19 01:15:28;;;;;;;51.42;28.05;;;;;;;14.19;52.58;101882.03;5004757;28;20099;-78
2022/05/19 01:17:54;;;;;;;50.10;30.63;;;;;;;14.08;53.44;101886.88;4974833;28;20105;-78
2022/05/19 01:20:24;;;;;;;47.05;29.23;;;;;;;14.24;52.69;101882.72;4984963;28;20549;-76
2022/05/19 01:23:26;;;;;;;51.30;32.45;;;;;;;14.07;52.79;101877.25;5002378;28;20793;-77
2022/05/19 01:26:04;;;;;;;49.78;31.52;;;;;;;13.94;53.57;101887.38;4981269;28;20030;-79
2022/05/19 01:28:30;;;;;;;43.88;29.60;;;;;;;13.86;53.29;101887.69;4970852;28;20069;-79
2022/05/19 01:30:56;;;;;;;47.95;30.80;;;;;;;14.06;53.19;101881.66;4976117;28;20045;-81
2022/05/19 01:33:22;;;;;;;49.13;31.65;;;;;;;14.00;52.74;101875.78;4971908;28;20026;-77
2022/05/19 01:35:48;;;;;;;53.30;33.35;;;;;;;13.91;53.20;101875.22;5003623;28;20068;-78
2022/05/19 01:38:21;;;;;;;55.10;32.30;;;;;;;13.89;53.26;101879.66;4973911;28;20038;-78
2022/05/19 01:41:32;;;;;;;50.10;32.08;;;;;;;13.83;53.41;101866.78;5005786;28;20510;-81
2022/05/19 01:44:17;;;;;;;45.97;31.48;;;;;;;13.86;53.44;101861.41;4971060;28;20057;-80
2022/05/19 01:46:47;;;;;;;56.92;32.22;;;;;;;13.86;53.13;101860.56;4971109;28;20041;-77
2022/05/19 01:49:17;;;;;;;48.80;32.03;;;;;;;13.79;53.31;101864.34;4969927;28;20065;-81
2022/05/19 01:51:54;;;;;;;48.88;30.02;;;;;;;13.84;53.50;101867.63;4974327;28;20107;-79
2022/05/19 01:54:35;;;;;;;45.92;31.02;;;;;;;13.91;53.46;101866.47;4992151;28;20434;-79
2022/05/19 01:57:17;;;;;;;51.03;32.27;;;;;;;13.91;53.39;101866.47;4973727;28;20568;-78
2022/05/19 01:59:54;;;;;;;60.45;33.58;;;;;;;13.78;53.19;101860.81;5006906;28;20061;-79
2022/05/19 02:02:28;;;;;;;54.58;34.55;;;;;;;13.69;53.88;101863.81;5011831;28;20049;-80
2022/05/19 02:04:58;;;;;;;58.75;32.60;;;;;;;13.73;54.11;101865.41;5008061;28;20613;-82
2022/05/19 02:07:24;;;;;;;59.50;37.08;;;;;;;13.71;54.15;101867.22;4978086;28;20038;-76
2022/05/19 02:09:59;;;;;;;47.20;30.45;;;;;;;13.73;54.21;101868.03;4972843;28;20038;-79
2022/05/19 02:12:25;;;;;;;51.00;32.42;;;;;;;13.89;53.84;101863.91;4976168;28;20076;-78
2022/05/19 02:14:58;;;;;;;59.75;35.25;;;;;;;13.95;53.58;101865.44;4975254;28;20068;-81
2022/05/19 02:17:28;;;;;;;53.17;33.80;;;;;;;13.85;53.82;101864.97;4993664;28;20275;-78
2022/05/19 02:20:03;;;;;;;54.08;35.13;;;;;;;13.84;53.96;101857.97;4993493;28;20185;-76
2022/05/19 02:22:42;;;;;;;53.92;32.97;;;;;;;13.84;53.89;101857.13;4972704;28;20045;-79
2022/05/19 02:25:23;;;;;;;55.88;33.80;;;;;;;13.78;53.87;101862.59;4989236;28;20104;-78
2022/05/19 02:28:15;;;;;;;48.83;31.75;;;;;;;13.71;53.70;101861.97;4971260;28;20035;-77
2022/05/19 02:30:41;;;;;;;58.05;36.65;;;;;;;13.57;54.01;101859.88;4968891;28;20176;-79
2022/05/19 02:33:08;;;;;;;56.90;34.03;;;;;;;13.51;54.23;101854.81;4969926;28;20045;-81
2022/05/19 02:35:34;;;;;;;50.83;32.60;;;;;;;13.55;54.28;101851.16;4973359;28;20073;-79
2022/05/19 02:38:00;;;;;;;55.88;34.15;;;;;;;13.66;54.13;101858.69;4973831;28;20054;-79
2022/05/19 02:40:30;;;;;;;45.75;29.05;;;;;;;13.68;53.68;101862.09;4977020;28;20886;-77
2022/05/19 02:42:56;;;;;;;51.20;33.33;;;;;;;13.63;54.00;101858.78;4985341;28;20057;-81
2022/05/19 02:45:22;;;;;;;60.80;36.50;;;;;;;13.51;54.08;101849.56;4972369;28;20026;-81
2022/05/19 02:47:48;;;;;;;51.05;31.98;;;;;;;13.51;54.22;101852.19;4975116;28;20080;-80
2022/05/19 02:50:17;;;;;;;51.35;32.25;;;;;;;13.59;54.38;101854.56;4970286;28;20030;-79
2022/05/19 02:52:43;;;;;;;51.33;32.10;;;;;;;13.63;53.97;101843.00;5001910;28;20057;-79
2022/05/19 02:55:09;;;;;;;54.30;34.83;;;;;;;13.55;54.05;101837.19;4991589;28;20144;-78
2022/05/19 02:57:35;;;;;;;51.20;34.90;;;;;;;13.49;54.35;101839.09;5004507;28;20046;-79
2022/05/19 03:00:01;;;;;;;54.45;35.40;;;;;;;13.61;54.52;101834.34;4986678;28;20049;-79
2022/05/19 03:02:26;;;;;;;61.10;35.70;;;;;;;13.64;53.97;101835.09;4971412;28;20113;-79
2022/05/19 03:04:52;;;;;;;51.45;35.90;;;;;;;13.63;54.04;101835.13;4967807;28;20125;-79
2022/05/19 03:07:18;;;;;;;58.92;38.97;;;;;;;13.59;54.28;101837.03;4989732;28;20033;-78
2022/05/19 03:09:45;;;;;;;62.63;40.95;;;;;;;13.50;54.71;101830.31;5009386;28;20480;-77
2022/05/19 03:12:14;;;;;;;65.95;39.42;;;;;;;13.45;54.76;101840.16;5001778;28;20111;-78
2022/05/19 03:14:40;;;;;;;64.55;40.30;;;;;;;13.39;55.10;101829.84;4972662;28;20093;-79
2022/05/19 03:17:08;;;;;;;65.47;39.67;;;;;;;13.41;55.08;101829.81;4969360;28;20101;-80
2022/05/19 03:19:34;;;;;;;65.43;41.78;;;;;;;13.37;55.53;101821.19;4973846;28;20030;-79
2022/05/19 03:22:00;;;;;;;64.95;42.60;;;;;;;13.30;55.93;101820.53;4973001;28;20030;-81
2022/05/19 03:24:25;;;;;;;62.03;40.78;;;;;;;13.38;55.51;101822.88;4987936;28;20602;-79
2022/05/19 03:26:51;;;;;;;66.80;43.25;;;;;;;13.33;55.84;101820.41;4986002;28;20030;-82
2022/05/19 03:29:17;;;;;;;73.90;43.38;;;;;;;13.38;55.62;101815.00;4969210;28;20049;-80
2022/05/19 03:31:43;;;;;;;69.13;44.15;;;;;;;13.25;56.15;101800.59;5004982;28;20026;-80
2022/05/19 03:34:08;;;;;;;69.75;42.38;;;;;;;13.33;56.01;101803.81;4983153;28;20516;-80
2022/05/19 03:36:34;;;;;;;66.38;43.08;;;;;;;13.32;55.74;101802.13;4974341;28;20034;-82
2022/05/19 03:38:59;;;;;;;71.82;44.92;;;;;;;13.26;55.86;101804.97;5004660;28;20072;-77
2022/05/19 03:41:25;;;;;;;72.90;45.58;;;;;;;13.25;56.39;101805.84;4969867;28;20037;-79
2022/05/19 03:43:51;;;;;;;77.07;46.17;;;;;;;13.19;56.41;101804.34;4964967;28;20030;-78
2022/05/19 03:46:17;;;;;;;81.13;46.63;;;;;;;13.22;56.25;101803.34;4992182;28;20473;-79
2022/05/19 03:48:42;;;;;;;73.93;45.20;;;;;;;13.28;55.98;101806.63;4968010;28;20076;-79
2022/05/19 03:51:33;;;;;;;85.03;45.80;;;;;;;13.19;56.31;101806.09;4967974;28;20145;-80
2022/05/19 03:53:59;;;;;;;75.90;45.90;;;;;;;13.32;56.02;101800.34;4984781;28;20092;-79
2022/05/19 03:56:26;;;;;;;89.88;49.30;;;;;;;13.27;56.39;101796.16;4970900;28;20030;-78
2022/05/19 03:58:52;;;;;;;78.07;47.70;;;;;;;13.39;56.27;101798.34;5003090;28;20041;-79
2022/05/19 04:01:19;;;;;;;83.40;51.08;;;;;;;13.32;56.06;101792.47;4990585;28;20026;-80
2022/05/19 04:03:45;;;;;;;82.45;49.17;;;;;;;13.28;56.23;101787.38;4984893;28;20033;-79
2022/05/19 04:06:10;;;;;;;80.80;48.33;;;;;;;13.29;56.04;101786.47;5001910;28;20061;-79
2022/05/19 04:08:37;;;;;;;84.43;49.53;;;;;;;13.32;55.87;101783.75;4970829;28;20038;-78
2022/05/19 04:11:03;;;;;;;82.00;47.92;;;;;;;13.29;55.95;101781.22;4986602;28;20034;-80
2022/05/19 04:13:29;;;;;;;81.63;46.42;;;;;;;13.29;56.48;101781.22;4979832;28;20133;-81
2022/05/19 04:15:54;;;;;;;87.25;49.25;;;;;;;13.38;55.92;101774.75;4999652;28;20125;-80
2022/05/19 04:18:20;;;;;;;77.72;46.75;;;;;;;13.41;55.41;101780.78;4970383;28;20463;-78
2022/05/19 04:20:45;;;;;;;79.82;46.67;;;;;;;13.30;55.75;101782.94;4971470;28;20093;-78
2022/05/19 04:23:11;;;;;;;78.85;47.95;;;;;;;13.11;56.09;101780.13;4977977;28;20763;-78
2022/05/19 04:25:38;;;;;;;84.80;48.03;;;;;;;13.16;55.96;101780.84;4977943;28;20034;-80
2022/05/19 04:28:04;;;;;;;78.97;46.78;;;;;;;13.29;56.02;101781.22;4971385;28;20050;-80
2022/05/19 04:30:30;;;;;;;81.60;45.25;;;;;;;13.33;55.86;101782.81;4973500;28;20029;-79
2022/05/19 04:32:56;;;;;;;83.63;48.03;;;;;;;13.32;54.97;101778.50;5000734;28;20041;-75
2022/05/19 04:35:22;;;;;;;75.97;45.70;;;;;;;13.34;55.59;101792.41;5002576;28;20026;-78
2022/05/19 04:37:48;;;;;;;88.75;48.05;;;;;;;13.41;55.56;101779.91;5002574;28;20517;-77
2022/05/19 04:40:17;;;;;;;76.38;45.35;;;;;;;13.58;55.07;101784.56;4968917;28;20085;-77
2022/05/19 04:42:44;;;;;;;83.93;46.90;;;;;;;13.74;55.12;101783.03;4968986;28;20043;-77
2022/05/19 04:45:14;;;;;;;83.85;48.45;;;;;;;13.81;54.55;101776.66;4985504;28;20045;-80
2022/05/19 04:47:40;;;;;;;78.60;47.42;;;;;;;13.79;54.57;101775.00;4968471;28;20076;-78
2022/05/19 04:50:07;;;;;;;83.20;48.55;;;;;;;13.70;55.07;101777.06;5000688;28;20069;-80
2022/05/19 04:52:33;;;;;;;81.78;47.35;;;;;;;13.88;54.39;101767.59;4983490;28;20057;-78
2022/05/19 04:54:58;;;;;;;77.05;47.88;;;;;;;14.06;54.22;101773.03;4987316;28;20033;-77
2022/05/19 04:57:24;;;;;;;79.70;47.50;;;;;;;14.30;53.95;101774.66;4986057;28;20038;-79
2022/05/19 04:59:50;;;;;;;76.97;46.10;;;;;;;14.48;53.85;101769.59;4976321;28;20030;-79
2022/05/19 05:02:15;;;;;;;80.80;47.95;;;;;;;14.49;53.16;101768.66;4992749;28;20022;-79
2022/05/19 05:04:41;;;;;;;77.13;47.97;;;;;;;14.58;53.75;101764.78;4988074;28;20327;-79
2022/05/19 05:07:07;;;;;;;80.18;47.50;;;;;;;14.81;53.01;101763.78;4972629;28;20396;-78
2022/05/19 05:09:32;;;;;;;82.60;47.58;;;;;;;14.84;53.14;101761.03;4970664;28;20391;-78
2022/05/19 05:11:58;;;;;;;85.95;49.45;;;;;;;15.25;51.23;101760.97;4970566;28;20402;-79
2022/05/19 05:14:24;;;;;;;78.85;47.95;;;;;;;15.27;51.93;101754.69;4972506;28;20038;-78
2022/05/19 05:16:52;;;;;;;86.97;48.90;;;;;;;15.29;51.86;101752.00;4970515;28;20536;-78
2022/05/19 05:19:21;;;;;;;87.32;48.13;;;;;;;15.41;51.88;101754.06;4970248;28;20054;-77
2022/05/19 05:21:48;;;;;;;78.05;46.65;;;;;;;15.66;51.51;101760.81;4977429;28;20044;-75
2022/05/19 05:24:14;;;;;;;77.85;45.95;;;;;;;15.99;50.89;101751.28;4967574;28;20031;-80
2022/05/19 05:26:40;;;;;;;69.80;45.25;;;;;;;16.20;50.73;101751.19;4990836;28;20049;-76
2022/05/19 05:29:06;;;;;;;84.47;46.40;;;;;;;16.35;50.17;101747.78;4966822;28;20050;-77
2022/05/19 05:31:31;;;;;;;74.57;43.92;;;;;;;16.53;49.71;101748.63;5007021;28;20045;-80
2022/05/19 05:33:57;;;;;;;73.35;43.95;;;;;;;16.93;49.07;101746.53;4987309;28;20053;-79
2022/05/19 05:36:23;;;;;;;71.60;42.17;;;;;;;17.46;49.11;101739.28;4973942;28;20030;-78
2022/05/19 05:38:48;;;;;;;75.18;42.35;;;;;;;17.79;47.60;101741.00;5011500;28;20042;-80
2022/05/19 05:41:15;;;;;;;69.55;38.05;;;;;;;17.93;46.49;101727.84;4988269;28;20072;-80
2022/05/19 05:43:41;;;;;;;68.13;42.35;;;;;;;18.00;45.82;101725.69;4984400;28;20065;-79
2022/05/19 05:46:09;;;;;;;65.72;38.67;;;;;;;17.74;47.25;101724.53;4972449;28;20120;-79
2022/05/19 05:48:36;;;;;;;63.10;41.45;;;;;;;17.78;47.48;101723.44;5005335;28;20496;-78
2022/05/19 05:51:16;;;;;;;55.85;35.83;;;;;;;17.80;47.30;101729.47;5043273;28;20395;-68
2022/05/19 05:53:43;;;;;;;62.55;37.75;;;;;;;17.81;47.06;101739.13;5034196;28;20041;-70
2022/05/19 05:56:11;;;;;;;57.45;36.92;;;;;;;17.68;47.63;101738.13;5030812;28;20544;-68
2022/05/19 05:58:37;;;;;;;63.60;37.53;;;;;;;17.65;47.78;101725.94;5040509;28;20122;-69
2022/05/19 06:01:06;;;;;;;56.90;35.08;;;;;;;17.62;47.59;101718.16;5052133;28;20013;-68
2022/05/19 06:03:32;;;;;;;52.65;34.35;;;;;;;17.81;47.16;101724.13;5036720;28;20037;-69
2022/05/19 06:05:59;;;;;;;53.13;33.53;;;;;;;18.26;46.88;101726.84;5051777;28;20040;-68
2022/05/19 06:08:24;;;;;;;52.30;33.22;;;;;;;18.76;45.75;101720.28;5035395;28;20066;-69
2022/05/19 06:10:51;;;;;;;52.72;32.95;;;;;;;19.47;44.12;101729.97;5055457;28;20028;-67
2022/05/19 06:13:16;;;;;;;57.38;34.25;;;;;;;20.00;43.22;101731.91;5026628;28;20095;-68
2022/05/19 06:15:42;;;;;;;53.90;32.53;;;;;;;20.63;41.17;101717.84;5057524;28;20040;-69
2022/05/19 06:18:08;;;;;;;47.67;31.70;;;;;;;19.62;43.87;101717.56;5048871;28;20052;-68
2022/05/19 06:20:37;;;;;;;64.45;35.53;;;;;;;19.32;44.50;101719.50;5052263;28;20029;-69
2022/05/19 06:23:03;;;;;;;53.75;34.35;;;;;;;19.26;44.66;101705.69;5048591;28;20074;-68
2022/05/19 06:25:30;;;;;;;61.40;36.08;;;;;;;20.27;42.73;101716.78;5048461;28;20505;-69
2022/05/19 06:27:56;;;;;;;51.05;33.05;;;;;;;19.93;42.75;101726.16;5049047;28;20033;-68
2022/05/19 06:30:24;;;;;;;51.28;29.95;;;;;;;20.81;43.04;101736.13;5048381;28;20385;-70
2022/05/19 06:32:50;;;;;;;46.40;29.02;;;;;;;22.25;39.31;101743.41;5047609;28;20095;-70
2022/05/19 06:35:19;;;;;;;49.83;30.23;;;;;;;23.40;36.42;101737.06;5049067;28;20112;-68
2022/05/19 06:37:46;;;;;;;44.60;29.20;;;;;;;24.36;34.35;101740.69;5050686;28;20098;-71
2022/05/19 06:40:13;;;;;;;38.45;26.10;;;;;;;24.55;34.03;101751.53;5051372;28;20628;-71
2022/05/19 06:42:39;;;;;;;40.63;24.35;;;;;;;24.07;34.57;101757.34;5049497;28;20051;-71
2022/05/19 06:45:07;;;;;;;37.67;27.05;;;;;;;23.35;35.92;101772.13;5032035;28;20028;-71
2022/05/19 06:47:32;;;;;;;38.35;25.98;;;;;;;23.45;35.73;101771.38;5050088;28;20174;-70
2022/05/19 06:49:58;;;;;;;36.00;24.67;;;;;;;24.11;35.58;101769.47;5046513;28;20048;-71
2022/05/19 06:52:30;;;;;;;38.17;23.33;;;;;;;24.00;34.53;101766.88;5051054;28;20056;-70
2022/05/19 06:54:57;;;;;;;31.92;22.02;;;;;;;23.91;35.25;101768.47;5049595;28;20029;-70
2022/05/19 06:57:25;;;;;;;34.70;22.77;;;;;;;26.09;31.58;101759.28;5049933;28;20037;-73
2022/05/19 06:59:51;;;;;;;30.30;22.00;;;;;;;27.58;28.08;101769.13;5047902;28;20147;-71
2022/05/19 07:02:19;;;;;;;27.65;20.77;;;;;;;26.86;29.12;101752.03;5038887;28;20063;-71
2022/05/19 07:04:46;;;;;;;26.60;19.52;;;;;;;27.19;28.94;101764.03;5037875;28;20874;-70
2022/05/19 07:07:12;;;;;;;25.63;18.80;;;;;;;24.70;31.90;101762.69;5036375;28;20241;-71
2022/05/19 07:09:39;;;;;;;22.90;19.45;;;;;;;23.77;34.03;101772.25;5033708;28;20040;-75
2022/05/19 07:12:07;;;;;;;26.55;19.33;;;;;;;21.74;37.51;101768.50;5035672;28;20057;-72
2022/05/19 07:14:33;;;;;;;29.27;20.30;;;;;;;21.69;38.07;101784.81;5037605;28;20555;-71
2022/05/19 07:16:59;;;;;;;26.73;18.83;;;;;;;22.59;37.22;101785.16;5033378;28;20024;-72
2022/05/19 07:22:16;;;;;;;25.40;17.42;;;;;;;21.45;38.05;101778.56;5050647;28;20037;-71
2022/05/19 07:24:41;;;;;;;23.25;16.50;;;;;;;21.74;37.79;101772.00;5037390;28;20053;-72
2022/05/19 07:27:07;;;;;;;27.15;16.40;;;;;;;21.11;38.63;101788.94;5036444;28;20079;-71
2022/05/19 07:29:32;;;;;;;23.98;17.60;;;;;;;21.22;38.16;101769.56;5031917;28;20390;-72
2022/05/19 07:32:01;;;;;;;23.95;15.35;;;;;;;21.92;36.89;101769.78;5036385;28;20048;-71
2022/05/19 07:34:29;;;;;;;22.38;16.50;;;;;;;21.59;37.39;101770.47;5037382;28;20549;-71
2022/05/19 07:36:55;;;;;;;22.85;15.43;;;;;;;22.64;35.86;101775.94;5032156;28;20108;-71
2022/05/19 07:39:22;;;;;;;19.95;14.43;;;;;;;23.58;34.72;101772.91;5036658;28;20539;-71
2022/05/19 07:41:55;;;;;;;24.03;14.20;;;;;;;24.51;32.56;101763.44;5035697;28;20524;-72
2022/05/19 07:44:21;;;;;;;17.95;14.85;;;;;;;24.32;32.95;101765.97;5034235;28;20043;-71
2022/05/19 07:46:48;;;;;;;21.27;15.35;;;;;;;24.07;32.87;101757.34;5037467;28;20262;-71
2022/05/19 07:49:14;;;;;;;20.58;14.98;;;;;;;24.31;33.21;101764.28;5016145;28;20041;-71
2022/05/19 07:51:42;;;;;;;23.27;16.40;;;;;;;24.57;33.65;101756.72;5031180;28;20238;-71
2022/05/19 07:54:14;;;;;;;24.23;15.85;;;;;;;26.16;31.15;101756.88;5047574;28;20370;-71
2022/05/19 07:56:41;;;;;;;24.63;16.45;;;;;;;27.70;28.41;101756.38;5031283;28;20382;-71
2022/05/19 07:59:08;;;;;;;22.77;15.23;;;;;;;27.83;27.22;101747.91;5033208;28;20800;-71
2022/05/19 08:01:35;;;;;;;20.75;16.05;;;;;;;27.22;28.32;101746.78;5032492;28;20258;-71
2022/05/19 08:04:02;;;;;;;19.75;15.07;;;;;;;28.03;27.72;101743.19;5032494;28;20128;-71
2022/05/19 08:06:28;;;;;;;22.67;17.38;;;;;;;28.53;27.49;101746.09;5016795;28;20033;-71
2022/05/19 08:08:54;;;;;;;20.10;17.40;;;;;;;28.20;27.64;101744.19;5029784;28;20029;-71
2022/05/19 08:11:20;;;;;;;29.85;16.00;;;;;;;27.50;28.54;101745.75;5033217;28;20044;-70
2022/05/19 08:16:46;;;;;;;22.38;18.60;;;;;;;23.92;34.00;101745.28;4992326;28;20105;-71
2022/05/19 08:19:12;;;;;;;26.17;18.17;;;;;;;23.22;35.15;101755.38;5016822;28;20444;-71
2022/05/19 08:21:37;;;;;;;29.13;22.45;;;;;;;22.91;36.70;101768.47;5032077;28;20384;-71
2022/05/19 08:24:03;;;;;;;35.67;23.52;;;;;;;22.31;37.73;101773.09;5030984;28;20094;-71
2022/05/19 08:26:29;;;;;;;39.22;24.92;;;;;;;21.45;39.62;101792.72;5030676;28;20471;-71
2022/05/19 08:28:54;;;;;;;33.83;23.67;;;;;;;20.68;40.25;101802.53;5026582;28;20443;-70
2022/05/19 08:31:24;;;;;;;35.05;21.58;;;;;;;20.94;39.94;101793.63;5033034;28;20075;-70
2022/05/19 08:33:52;;;;;;;31.73;21.33;;;;;;;20.74;40.03;101800.31;5003695;28;20147;-73
2022/05/19 08:36:21;;;;;;;30.27;19.77;;;;;;;20.88;40.25;101788.75;5030058;28;20132;-70
2022/05/19 08:38:50;;;;;;;30.27;19.65;;;;;;;21.04;39.06;101788.56;5024593;28;20498;-71
2022/05/19 08:41:31;;;;;;;23.58;17.15;;;;;;;22.32;37.62;101788.13;5033382;28;20033;-70
2022/05/19 08:44:12;;;;;;;26.05;14.98;;;;;;;22.84;35.84;101795.75;5011866;28;20429;-71
2022/05/19 08:46:40;;;;;;;22.92;14.20;;;;;;;23.38;33.59;101787.88;5031017;28;20043;-70
2022/05/19 08:49:10;;;;;;;24.20;15.10;;;;;;;23.17;34.52;101790.41;5029726;28;20478;-71
2022/05/19 08:51:48;;;;;;;21.27;15.45;;;;;;;23.47;34.07;101796.94;5033385;28;20504;-70
2022/05/19 08:54:20;;;;;;;26.02;16.88;;;;;;;23.70;33.23;101804.91;5028298;28;20040;-71
2022/05/19 08:57:01;;;;;;;22.88;15.48;;;;;;;23.86;32.97;101817.91;5013430;28;20179;-71
2022/05/19 08:59:57;;;;;;;23.75;15.10;;;;;;;23.56;34.04;101824.72;5032984;28;20036;-70
2022/05/19 09:02:37;;;;;;;24.38;15.88;;;;;;;22.94;34.84;101840.25;5031688;28;20044;-70
2022/05/19 09:05:27;;;;;;;22.75;15.07;;;;;;;22.41;35.49;101847.81;5024072;28;20051;-70
2022/05/19 09:07:59;;;;;;;21.88;14.75;;;;;;;22.22;35.55;101858.16;5030076;28;20464;-70
2022/05/19 09:10:38;;;;;;;26.00;13.15;;;;;;;21.55;36.70;101852.28;5032701;28;20254;-70
2022/05/19 09:13:56;;;;;;;17.33;13.15;;;;;;;20.87;37.81;101856.13;5029465;28;20070;-70
2022/05/19 09:16:25;;;;;;;19.45;12.65;;;;;;;21.32;37.10;101851.22;5009708;28;20659;-70
2022/05/19 09:19:13;;;;;;;14.50;8.98;;;;;;;21.45;36.54;101851.22;5030227;28;20465;-73
2022/05/19 09:21:41;;;;;;;16.83;10.15;;;;;;;21.65;35.44;101847.16;5034643;28;20513;-71
2022/05/19 09:24:10;;;;;;;20.63;11.60;;;;;;;21.12;36.80;101835.84;5028797;28;20045;-70
2022/05/19 09:26:46;;;;;;;22.40;11.77;;;;;;;20.76;37.82;101836.56;5034215;28;20037;-70
2022/05/19 09:29:16;;;;;;;15.75;9.98;;;;;;;20.76;38.26;101842.72;5031351;28;20045;-70
2022/05/19 09:32:06;;;;;;;20.25;11.73;;;;;;;20.37;39.36;101847.09;5034308;28;20039;-71
2022/05/19 09:34:35;;;;;;;23.27;11.18;;;;;;;20.04;39.34;101868.72;5040246;28;20102;-70
2022/05/19 09:37:14;;;;;;;24.38;12.43;;;;;;;19.87;39.64;101885.72;5034525;28;20040;-71
2022/05/19 09:40:12;;;;;;;20.13;11.50;;;;;;;19.25;41.02;101831.19;5032779;28;20318;-71
2022/05/19 09:42:59;;;;;;;19.25;12.95;;;;;;;18.88;42.85;101825.50;5031690;28;20049;-72
2022/05/19 09:45:27;;;;;;;22.70;12.80;;;;;;;18.20;45.15;101815.34;5035283;28;20036;-71
2022/05/19 09:48:04;;;;;;;19.20;12.65;;;;;;;17.84;45.96;101792.69;5030393;28;20047;-70
2022/05/19 09:50:37;;;;;;;21.27;13.48;;;;;;;17.23;47.32;101801.31;5034561;28;20037;-70
2022/05/19 09:53:05;;;;;;;24.17;13.45;;;;;;;17.41;47.40;101813.53;5033925;28;20129;-71
2022/05/19 09:55:31;;;;;;;27.55;15.68;;;;;;;17.58;47.05;101782.72;5035130;28;20116;-71
2022/05/19 09:57:59;;;;;;;25.10;15.82;;;;;;;17.53;46.35;101790.03;5028810;28;20131;-71
2022/05/19 10:00:49;;;;;;;21.55;13.13;;;;;;;17.34;47.52;101777.81;5034224;28;20028;-71
2022/05/19 10:03:24;;;;;;;22.23;12.27;;;;;;;18.09;46.09;101777.22;5033572;28;20639;-71
2022/05/19 10:05:55;;;;;;;16.73;11.82;;;;;;;18.37;45.87;101787.94;5033627;28;20562;-71
2022/05/19 10:08:26;;;;;;;19.63;12.77;;;;;;;18.48;44.76;101793.44;5034864;28;20045;-71
2022/05/19 10:11:01;;;;;;;27.33;13.90;;;;;;;18.43;43.89;101806.09;5034316;28;20102;-71
2022/05/19 10:13:36;;;;;;;17.80;11.73;;;;;;;18.38;42.83;101812.59;5034315;28;20106;-71
2022/05/19 10:16:32;;;;;;;14.18;9.65;;;;;;;18.37;43.54;101821.47;5032336;28;20596;-71
2022/05/19 10:19:18;;;;;;;13.20;8.52;;;;;;;19.16;41.67;101815.88;5030082;28;20135;-71
2022/05/19 10:22:12;;;;;;;14.85;8.85;;;;;;;19.12;42.08;101798.44;5031575;28;20068;-70
2022/05/19 10:24:53;;;;;;;20.00;10.40;;;;;;;19.44;41.43;101788.50;5045831;28;20144;-71
2022/05/19 10:31:04;;;;;;;22.58;11.68;;;;;;;19.73;40.66;101795.56;5023054;28;20045;-71
2022/05/19 10:33:54;;;;;;;19.52;11.27;;;;;;;19.54;40.52;101782.59;5017129;28;20361;-71
2022/05/19 10:36:57;;;;;;;22.48;11.25;;;;;;;19.83;39.60;101784.25;5034859;28;20051;-71
2022/05/19 10:39:26;;;;;;;16.83;10.50;;;;;;;19.82;40.06;101793.16;5033064;28;20107;-70
2022/05/19 10:42:36;;;;;;;17.52;10.95;;;;;;;20.50;39.05;101776.28;5035260;28;20029;-71
2022/05/19 10:45:28;;;;;;;24.92;11.40;;;;;;;20.84;38.79;101776.66;5033621;28;20504;-71
2022/05/19 10:48:24;;;;;;;18.80;10.68;;;;;;;20.93;38.09;101769.81;5033399;28;20040;-71
2022/05/19 10:51:03;;;;;;;15.75;10.38;;;;;;;20.93;37.54;101765.38;5035582;28;20364;-71
2022/05/19 10:53:45;;;;;;;17.77;10.45;;;;;;;21.21;36.64;101757.25;5036307;28;20393;-70
2022/05/19 10:56:22;;;;;;;17.25;10.57;;;;;;;21.09;37.29;101762.47;5035638;28;20052;-71
2022/05/19 10:59:13;;;;;;;17.33;10.80;;;;;;;21.24;37.42;101755.19;5033929;28;20178;-71
2022/05/19 11:02:21;;;;;;;13.27;10.23;;;;;;;21.45;37.19;101754.63;5034969;28;20210;-71
2022/05/19 11:05:02;;;;;;;15.82;11.45;;;;;;;21.26;36.02;101747.97;5025956;28;20036;-71
2022/05/19 11:07:57;;;;;;;13.77;9.20;;;;;;;21.37;36.51;101747.19;5034913;28;20033;-70
2022/05/19 11:11:00;;;;;;;21.13;10.00;;;;;;;21.47;37.32;101739.44;5013245;28;20033;-71
2022/05/19 11:13:38;;;;;;;17.63;10.80;;;;;;;21.93;36.72;101728.03;5031364;28;20047;-71
2022/05/19 11:16:06;;;;;;;16.88;10.48;;;;;;;22.79;35.09;101732.16;5026840;28;20032;-70
2022/05/19 11:18:56;;;;;;;19.02;12.13;;;;;;;23.44;33.55;101725.19;5001601;28;20460;-71
2022/05/19 11:21:40;;;;;;;20.33;12.07;;;;;;;23.48;34.58;101715.13;5031535;28;20103;-71
2022/05/19 11:24:22;;;;;;;17.92;12.57;;;;;;;23.47;34.91;101714.25;5031357;28;20044;-70
2022/05/19 11:27:09;;;;;;;21.55;11.32;;;;;;;23.88;33.07;101698.47;5033311;28;20478;-71
2022/05/19 11:29:37;;;;;;;15.18;11.77;;;;;;;23.74;33.34;101695.09;5021738;28;20037;-71
2022/05/19 11:32:12;;;;;;;19.67;12.35;;;;;;;23.78;33.28;101701.03;5033230;28;20580;-71
2022/05/19 11:35:05;;;;;;;23.05;14.70;;;;;;;23.61;33.43;101691.75;5031820;28;20083;-71
2022/05/19 11:37:33;;;;;;;18.88;14.18;;;;;;;23.40;33.68;101689.91;5033489;28;20029;-71
2022/05/19 11:40:20;;;;;;;21.58;15.35;;;;;;;23.21;34.10;101689.69;5032816;28;20032;-71